sensor_id;sensor_type;location;lat;lon;timestamp;P1;durP1;ratioP1;P2;durP2;ratioP2
48861;SDS011;34681;49.188;-0.374;2023-12-20T00:01:37;4.53;;;2.50;;
48861;SDS011;34681;49.188;-0.374;2023-12-20T00:04:02;5.43;;;2.50;;
48861;SDS011;34681;49.188;-0.374;2023-12-20T00:06:28;7.50;;;2.40;;
48861;SDS011;34681;49.188;-0.374;2023-12-20T00:08:54;7.93;;;2.83;;
48861;SDS011;34681;49.188;-0.374;2023-12-20T00:11:19;7.60;;;2.23;;
48861;SDS011;34681;49.188;-0.374;2023-12-20T00:13:45;4.27;;;2.03;;
48861;SDS011;34681;49.188;-0.374;2023-12-20T00:16:10;9.57;;;3.00;;
48861;SDS011;34681;49.188;-0.374;2023-12-20T00:18:35;5.77;;;2.50;;
48861;SDS011;34681;49.188;-0.374;2023-12-20T00:21:01;7.97;;;2.33;;
48861;SDS011;34681;49.188;-0.374;2023-12-20T00:23:26;8.20;;;2.67;;
48861;SDS011;34681;49.188;-0.374;2023-12-20T00:25:51;4.47;;;2.67;;
48861;SDS011;34681;49.188;-0.374;2023-12-20T00:28:17;7.37;;;2.23;;
48861;SDS011;34681;49.188;-0.374;2023-12-20T00:30:42;11.73;;;2.70;;
48861;SDS011;34681;49.188;-0.374;2023-12-20T00:33:07;6.20;;;1.90;;
48861;SDS011;34681;49.188;-0.374;2023-12-20T00:35:33;6.40;;;2.20;;
48861;SDS011;34681;49.188;-0.374;2023-12-20T00:37:58;3.53;;;2.20;;
48861;SDS011;34681;49.188;-0.374;2023-12-20T00:40:24;4.70;;;2.17;;
48861;SDS011;34681;49.188;-0.374;2023-12-20T00:42:49;4.17;;;2.10;;
48861;SDS011;34681;49.188;-0.374;2023-12-20T00:45:15;8.90;;;2.70;;
48861;SDS011;34681;49.188;-0.374;2023-12-20T00:47:40;5.27;;;2.40;;
48861;SDS011;34681;49.188;-0.374;2023-12-20T00:50:06;7.77;;;2.30;;
48861;SDS011;34681;49.188;-0.374;2023-12-20T00:52:31;5.00;;;2.80;;
48861;SDS011;34681;49.188;-0.374;2023-12-20T00:54:57;4.67;;;2.20;;
48861;SDS011;34681;49.188;-0.374;2023-12-20T00:57:22;11.37;;;3.00;;
48861;SDS011;34681;49.188;-0.374;2023-12-20T00:59:47;6.00;;;2.30;;
48861;SDS011;34681;49.188;-0.374;2023-12-20T01:02:13;8.33;;;2.63;;
48861;SDS011;34681;49.188;-0.374;2023-12-20T01:04:38;5.97;;;2.13;;
48861;SDS011;34681;49.188;-0.374;2023-12-20T01:07:03;4.03;;;1.83;;
48861;SDS011;34681;49.188;-0.374;2023-12-20T01:09:29;5.93;;;2.50;;
48861;SDS011;34681;49.188;-0.374;2023-12-20T01:11:54;4.60;;;2.07;;
48861;SDS011;34681;49.188;-0.374;2023-12-20T01:14:19;3.23;;;1.80;;
48861;SDS011;34681;49.188;-0.374;2023-12-20T01:16:45;6.67;;;2.30;;
48861;SDS011;34681;49.188;-0.374;2023-12-20T01:19:10;3.93;;;2.17;;
48861;SDS011;34681;49.188;-0.374;2023-12-20T01:21:36;2.17;;;1.97;;
48861;SDS011;34681;49.188;-0.374;2023-12-20T01:24:01;3.60;;;1.90;;
48861;SDS011;34681;49.188;-0.374;2023-12-20T01:26:27;10.83;;;2.87;;
48861;SDS011;34681;49.188;-0.374;2023-12-20T01:28:52;4.10;;;2.07;;
48861;SDS011;34681;49.188;-0.374;2023-12-20T01:31:18;5.03;;;2.20;;
48861;SDS011;34681;49.188;-0.374;2023-12-20T01:33:43;3.43;;;2.17;;
48861;SDS011;34681;49.188;-0.374;2023-12-20T01:36:09;5.07;;;2.00;;
48861;SDS011;34681;49.188;-0.374;2023-12-20T01:38:34;3.90;;;1.80;;
48861;SDS011;34681;49.188;-0.374;2023-12-20T01:40:59;4.97;;;2.33;;
48861;SDS011;34681;49.188;-0.374;2023-12-20T01:43:25;3.93;;;1.57;;
48861;SDS011;34681;49.188;-0.374;2023-12-20T01:45:50;4.67;;;2.20;;
48861;SDS011;34681;49.188;-0.374;2023-12-20T01:48:16;5.90;;;1.97;;
48861;SDS011;34681;49.188;-0.374;2023-12-20T01:50:42;5.23;;;2.13;;
48861;SDS011;34681;49.188;-0.374;2023-12-20T01:53:10;5.63;;;2.23;;
48861;SDS011;34681;49.188;-0.374;2023-12-20T01:55:39;7.80;;;2.20;;
48861;SDS011;34681;49.188;-0.374;2023-12-20T01:58:05;7.50;;;2.50;;
48861;SDS011;34681;49.188;-0.374;2023-12-20T02:00:31;5.87;;;2.17;;
48861;SDS011;34681;49.188;-0.374;2023-12-20T02:02:59;5.20;;;2.40;;
48861;SDS011;34681;49.188;-0.374;2023-12-20T02:05:26;9.73;;;2.50;;
48861;SDS011;34681;49.188;-0.374;2023-12-20T02:07:53;6.87;;;2.13;;
48861;SDS011;34681;49.188;-0.374;2023-12-20T02:10:18;6.53;;;1.90;;
48861;SDS011;34681;49.188;-0.374;2023-12-20T02:12:44;4.40;;;1.67;;
48861;SDS011;34681;49.188;-0.374;2023-12-20T02:15:09;5.10;;;2.07;;
48861;SDS011;34681;49.188;-0.374;2023-12-20T02:17:35;3.37;;;1.83;;
48861;SDS011;34681;49.188;-0.374;2023-12-20T02:20:01;5.47;;;3.80;;
48861;SDS011;34681;49.188;-0.374;2023-12-20T02:22:26;9.67;;;2.50;;
48861;SDS011;34681;49.188;-0.374;2023-12-20T02:24:52;4.93;;;2.00;;
48861;SDS011;34681;49.188;-0.374;2023-12-20T02:27:17;3.80;;;1.97;;
48861;SDS011;34681;49.188;-0.374;2023-12-20T02:29:44;6.30;;;2.00;;
48861;SDS011;34681;49.188;-0.374;2023-12-20T02:32:12;7.57;;;2.33;;
48861;SDS011;34681;49.188;-0.374;2023-12-20T02:34:37;5.70;;;1.93;;
48861;SDS011;34681;49.188;-0.374;2023-12-20T02:37:03;4.90;;;2.20;;
48861;SDS011;34681;49.188;-0.374;2023-12-20T02:39:28;8.23;;;2.83;;
48861;SDS011;34681;49.188;-0.374;2023-12-20T02:41:54;6.20;;;2.00;;
48861;SDS011;34681;49.188;-0.374;2023-12-20T02:44:19;7.13;;;2.43;;
48861;SDS011;34681;49.188;-0.374;2023-12-20T02:46:44;5.00;;;2.27;;
48861;SDS011;34681;49.188;-0.374;2023-12-20T02:49:10;7.07;;;1.80;;
48861;SDS011;34681;49.188;-0.374;2023-12-20T02:51:35;6.50;;;2.20;;
48861;SDS011;34681;49.188;-0.374;2023-12-20T02:54:03;2.43;;;1.77;;
48861;SDS011;34681;49.188;-0.374;2023-12-20T02:56:29;3.27;;;2.07;;
48861;SDS011;34681;49.188;-0.374;2023-12-20T02:58:54;3.20;;;1.97;;
48861;SDS011;34681;49.188;-0.374;2023-12-20T03:01:19;5.77;;;2.00;;
48861;SDS011;34681;49.188;-0.374;2023-12-20T03:03:45;4.63;;;2.33;;
48861;SDS011;34681;49.188;-0.374;2023-12-20T03:06:10;6.60;;;2.27;;
48861;SDS011;34681;49.188;-0.374;2023-12-20T03:08:35;2.73;;;1.60;;
48861;SDS011;34681;49.188;-0.374;2023-12-20T03:11:01;9.57;;;2.13;;
48861;SDS011;34681;49.188;-0.374;2023-12-20T03:13:26;6.33;;;2.30;;
48861;SDS011;34681;49.188;-0.374;2023-12-20T03:15:52;9.17;;;2.37;;
48861;SDS011;34681;49.188;-0.374;2023-12-20T03:18:17;4.20;;;2.03;;
48861;SDS011;34681;49.188;-0.374;2023-12-20T03:20:43;4.30;;;1.93;;
48861;SDS011;34681;49.188;-0.374;2023-12-20T03:23:08;3.67;;;2.10;;
48861;SDS011;34681;49.188;-0.374;2023-12-20T03:25:34;8.23;;;2.37;;
48861;SDS011;34681;49.188;-0.374;2023-12-20T03:28:00;5.43;;;2.43;;
48861;SDS011;34681;49.188;-0.374;2023-12-20T03:30:25;5.87;;;2.40;;
48861;SDS011;34681;49.188;-0.374;2023-12-20T03:32:50;7.50;;;2.17;;
48861;SDS011;34681;49.188;-0.374;2023-12-20T03:35:16;6.70;;;2.60;;
48861;SDS011;34681;49.188;-0.374;2023-12-20T03:37:41;4.53;;;2.33;;
48861;SDS011;34681;49.188;-0.374;2023-12-20T03:40:07;5.93;;;2.27;;
48861;SDS011;34681;49.188;-0.374;2023-12-20T03:42:32;6.37;;;1.90;;
48861;SDS011;34681;49.188;-0.374;2023-12-20T03:44:57;7.53;;;2.70;;
48861;SDS011;34681;49.188;-0.374;2023-12-20T03:47:23;7.97;;;2.33;;
48861;SDS011;34681;49.188;-0.374;2023-12-20T03:49:48;6.10;;;2.07;;
48861;SDS011;34681;49.188;-0.374;2023-12-20T03:52:13;5.97;;;2.90;;
48861;SDS011;34681;49.188;-0.374;2023-12-20T03:54:39;3.47;;;1.73;;
48861;SDS011;34681;49.188;-0.374;2023-12-20T03:57:07;5.80;;;2.10;;
48861;SDS011;34681;49.188;-0.374;2023-12-20T03:59:36;8.37;;;2.93;;
48861;SDS011;34681;49.188;-0.374;2023-12-20T04:02:02;9.03;;;2.90;;
48861;SDS011;34681;49.188;-0.374;2023-12-20T04:04:28;4.70;;;2.23;;
48861;SDS011;34681;49.188;-0.374;2023-12-20T04:06:54;6.57;;;2.10;;
48861;SDS011;34681;49.188;-0.374;2023-12-20T04:09:19;7.40;;;1.93;;
48861;SDS011;34681;49.188;-0.374;2023-12-20T04:11:44;6.90;;;2.90;;
48861;SDS011;34681;49.188;-0.374;2023-12-20T04:14:10;6.77;;;2.60;;
48861;SDS011;34681;49.188;-0.374;2023-12-20T04:16:35;8.13;;;2.63;;
48861;SDS011;34681;49.188;-0.374;2023-12-20T04:19:00;4.17;;;2.43;;
48861;SDS011;34681;49.188;-0.374;2023-12-20T04:21:26;11.60;;;3.33;;
48861;SDS011;34681;49.188;-0.374;2023-12-20T04:23:51;6.13;;;2.40;;
48861;SDS011;34681;49.188;-0.374;2023-12-20T04:26:17;6.87;;;2.83;;
48861;SDS011;34681;49.188;-0.374;2023-12-20T04:28:42;8.17;;;2.20;;
48861;SDS011;34681;49.188;-0.374;2023-12-20T04:31:07;6.97;;;2.40;;
48861;SDS011;34681;49.188;-0.374;2023-12-20T04:33:33;8.33;;;2.27;;
48861;SDS011;34681;49.188;-0.374;2023-12-20T04:35:58;6.73;;;2.63;;
48861;SDS011;34681;49.188;-0.374;2023-12-20T04:38:25;8.07;;;2.63;;
48861;SDS011;34681;49.188;-0.374;2023-12-20T04:40:50;8.07;;;3.13;;
48861;SDS011;34681;49.188;-0.374;2023-12-20T04:43:16;4.60;;;2.07;;
48861;SDS011;34681;49.188;-0.374;2023-12-20T04:45:41;8.43;;;2.20;;
48861;SDS011;34681;49.188;-0.374;2023-12-20T04:48:06;5.27;;;2.57;;
48861;SDS011;34681;49.188;-0.374;2023-12-20T04:50:32;5.80;;;2.37;;
48861;SDS011;34681;49.188;-0.374;2023-12-20T04:52:58;10.20;;;3.40;;
48861;SDS011;34681;49.188;-0.374;2023-12-20T04:55:23;4.40;;;2.50;;
48861;SDS011;34681;49.188;-0.374;2023-12-20T04:57:48;4.03;;;1.97;;
48861;SDS011;34681;49.188;-0.374;2023-12-20T05:00:14;8.80;;;3.33;;
48861;SDS011;34681;49.188;-0.374;2023-12-20T05:02:40;7.90;;;2.47;;
48861;SDS011;34681;49.188;-0.374;2023-12-20T05:05:05;5.03;;;2.33;;
48861;SDS011;34681;49.188;-0.374;2023-12-20T05:07:31;7.10;;;2.73;;
48861;SDS011;34681;49.188;-0.374;2023-12-20T05:09:56;6.73;;;2.73;;
48861;SDS011;34681;49.188;-0.374;2023-12-20T05:12:22;7.70;;;2.37;;
48861;SDS011;34681;49.188;-0.374;2023-12-20T05:14:47;7.70;;;2.07;;
48861;SDS011;34681;49.188;-0.374;2023-12-20T05:17:12;11.67;;;2.80;;
48861;SDS011;34681;49.188;-0.374;2023-12-20T05:19:37;5.73;;;2.43;;
48861;SDS011;34681;49.188;-0.374;2023-12-20T05:22:03;6.17;;;2.77;;
48861;SDS011;34681;49.188;-0.374;2023-12-20T05:24:28;9.30;;;2.30;;
48861;SDS011;34681;49.188;-0.374;2023-12-20T05:26:54;16.00;;;2.87;;
48861;SDS011;34681;49.188;-0.374;2023-12-20T05:29:19;5.17;;;2.30;;
48861;SDS011;34681;49.188;-0.374;2023-12-20T05:31:45;9.93;;;2.83;;
48861;SDS011;34681;49.188;-0.374;2023-12-20T05:34:10;8.00;;;2.67;;
48861;SDS011;34681;49.188;-0.374;2023-12-20T05:36:36;9.63;;;3.37;;
48861;SDS011;34681;49.188;-0.374;2023-12-20T05:39:01;8.63;;;3.23;;
48861;SDS011;34681;49.188;-0.374;2023-12-20T05:41:28;7.73;;;2.40;;
48861;SDS011;34681;49.188;-0.374;2023-12-20T05:43:53;9.23;;;4.00;;
48861;SDS011;34681;49.188;-0.374;2023-12-20T05:46:19;8.90;;;2.50;;
48861;SDS011;34681;49.188;-0.374;2023-12-20T05:48:44;6.73;;;2.60;;
48861;SDS011;34681;49.188;-0.374;2023-12-20T05:51:11;8.03;;;3.17;;
48861;SDS011;34681;49.188;-0.374;2023-12-20T05:53:37;8.90;;;2.90;;
48861;SDS011;34681;49.188;-0.374;2023-12-20T05:56:03;12.30;;;3.90;;
48861;SDS011;34681;49.188;-0.374;2023-12-20T05:58:29;5.97;;;2.07;;
48861;SDS011;34681;49.188;-0.374;2023-12-20T06:00:54;3.70;;;2.30;;
48861;SDS011;34681;49.188;-0.374;2023-12-20T06:03:19;8.60;;;2.97;;
48861;SDS011;34681;49.188;-0.374;2023-12-20T06:05:45;7.60;;;2.90;;
48861;SDS011;34681;49.188;-0.374;2023-12-20T06:08:10;9.23;;;2.57;;
48861;SDS011;34681;49.188;-0.374;2023-12-20T06:10:35;7.57;;;2.77;;
48861;SDS011;34681;49.188;-0.374;2023-12-20T06:13:01;7.03;;;2.40;;
48861;SDS011;34681;49.188;-0.374;2023-12-20T06:15:26;8.17;;;2.50;;
48861;SDS011;34681;49.188;-0.374;2023-12-20T06:17:52;8.90;;;2.70;;
48861;SDS011;34681;49.188;-0.374;2023-12-20T06:20:17;9.53;;;3.80;;
48861;SDS011;34681;49.188;-0.374;2023-12-20T06:22:42;9.80;;;2.60;;
48861;SDS011;34681;49.188;-0.374;2023-12-20T06:25:08;6.63;;;2.60;;
48861;SDS011;34681;49.188;-0.374;2023-12-20T06:27:34;7.90;;;2.70;;
48861;SDS011;34681;49.188;-0.374;2023-12-20T06:29:59;14.97;;;3.80;;
48861;SDS011;34681;49.188;-0.374;2023-12-20T06:32:24;5.60;;;2.47;;
48861;SDS011;34681;49.188;-0.374;2023-12-20T06:34:50;11.53;;;3.30;;
48861;SDS011;34681;49.188;-0.374;2023-12-20T06:37:15;6.97;;;2.67;;
48861;SDS011;34681;49.188;-0.374;2023-12-20T06:39:40;11.03;;;3.60;;
48861;SDS011;34681;49.188;-0.374;2023-12-20T06:42:06;13.70;;;4.50;;
48861;SDS011;34681;49.188;-0.374;2023-12-20T06:44:31;10.50;;;3.30;;
48861;SDS011;34681;49.188;-0.374;2023-12-20T06:46:57;9.13;;;2.43;;
48861;SDS011;34681;49.188;-0.374;2023-12-20T06:49:22;9.87;;;2.87;;
48861;SDS011;34681;49.188;-0.374;2023-12-20T06:51:48;10.67;;;3.87;;
48861;SDS011;34681;49.188;-0.374;2023-12-20T06:54:13;6.30;;;3.23;;
48861;SDS011;34681;49.188;-0.374;2023-12-20T06:56:39;8.80;;;3.17;;
48861;SDS011;34681;49.188;-0.374;2023-12-20T06:59:04;11.30;;;3.43;;
48861;SDS011;34681;49.188;-0.374;2023-12-20T07:01:29;8.63;;;3.20;;
48861;SDS011;34681;49.188;-0.374;2023-12-20T07:03:55;6.73;;;2.80;;
48861;SDS011;34681;49.188;-0.374;2023-12-20T07:06:20;11.40;;;3.40;;
48861;SDS011;34681;49.188;-0.374;2023-12-20T07:08:45;13.63;;;2.97;;
48861;SDS011;34681;49.188;-0.374;2023-12-20T07:11:11;8.00;;;3.87;;
48861;SDS011;34681;49.188;-0.374;2023-12-20T07:13:37;8.60;;;3.70;;
48861;SDS011;34681;49.188;-0.374;2023-12-20T07:16:02;6.87;;;2.53;;
48861;SDS011;34681;49.188;-0.374;2023-12-20T07:18:28;12.67;;;3.33;;
48861;SDS011;34681;49.188;-0.374;2023-12-20T07:20:54;12.47;;;3.50;;
48861;SDS011;34681;49.188;-0.374;2023-12-20T07:23:20;16.43;;;3.53;;
48861;SDS011;34681;49.188;-0.374;2023-12-20T07:25:46;7.70;;;3.00;;
48861;SDS011;34681;49.188;-0.374;2023-12-20T07:28:12;12.07;;;3.30;;
48861;SDS011;34681;49.188;-0.374;2023-12-20T07:30:37;12.13;;;3.10;;
48861;SDS011;34681;49.188;-0.374;2023-12-20T07:33:02;7.10;;;2.60;;
48861;SDS011;34681;49.188;-0.374;2023-12-20T07:35:28;7.13;;;2.70;;
48861;SDS011;34681;49.188;-0.374;2023-12-20T07:37:53;10.67;;;3.67;;
48861;SDS011;34681;49.188;-0.374;2023-12-20T07:40:19;8.60;;;3.17;;
48861;SDS011;34681;49.188;-0.374;2023-12-20T07:42:44;7.67;;;3.10;;
48861;SDS011;34681;49.188;-0.374;2023-12-20T07:45:09;13.70;;;3.33;;
48861;SDS011;34681;49.188;-0.374;2023-12-20T07:47:36;12.60;;;3.50;;
48861;SDS011;34681;49.188;-0.374;2023-12-20T07:50:01;7.50;;;3.47;;
48861;SDS011;34681;49.188;-0.374;2023-12-20T07:52:29;7.40;;;3.07;;
48861;SDS011;34681;49.188;-0.374;2023-12-20T07:54:55;11.60;;;3.87;;
48861;SDS011;34681;49.188;-0.374;2023-12-20T07:57:20;9.00;;;4.23;;
48861;SDS011;34681;49.188;-0.374;2023-12-20T07:59:46;9.73;;;3.33;;
48861;SDS011;34681;49.188;-0.374;2023-12-20T08:02:11;9.93;;;4.40;;
48861;SDS011;34681;49.188;-0.374;2023-12-20T08:04:36;7.53;;;3.57;;
48861;SDS011;34681;49.188;-0.374;2023-12-20T08:07:03;10.93;;;3.40;;
48861;SDS011;34681;49.188;-0.374;2023-12-20T08:09:28;6.27;;;3.00;;
48861;SDS011;34681;49.188;-0.374;2023-12-20T08:11:54;5.60;;;3.00;;
48861;SDS011;34681;49.188;-0.374;2023-12-20T08:14:20;8.80;;;3.50;;
48861;SDS011;34681;49.188;-0.374;2023-12-20T08:16:45;11.43;;;3.63;;
48861;SDS011;34681;49.188;-0.374;2023-12-20T08:19:12;5.77;;;3.10;;
48861;SDS011;34681;49.188;-0.374;2023-12-20T08:21:58;12.73;;;3.50;;
48861;SDS011;34681;49.188;-0.374;2023-12-20T08:24:23;10.70;;;4.03;;
48861;SDS011;34681;49.188;-0.374;2023-12-20T08:26:49;8.77;;;3.30;;
48861;SDS011;34681;49.188;-0.374;2023-12-20T08:29:14;7.07;;;2.90;;
48861;SDS011;34681;49.188;-0.374;2023-12-20T08:31:39;2.90;;;2.33;;
48861;SDS011;34681;49.188;-0.374;2023-12-20T08:34:05;10.60;;;3.53;;
48861;SDS011;34681;49.188;-0.374;2023-12-20T08:36:30;10.23;;;4.27;;
48861;SDS011;34681;49.188;-0.374;2023-12-20T08:38:56;13.30;;;3.40;;
48861;SDS011;34681;49.188;-0.374;2023-12-20T08:41:21;10.30;;;2.90;;
48861;SDS011;34681;49.188;-0.374;2023-12-20T08:43:46;14.33;;;3.70;;
48861;SDS011;34681;49.188;-0.374;2023-12-20T08:46:12;6.27;;;3.00;;
48861;SDS011;34681;49.188;-0.374;2023-12-20T08:48:39;9.33;;;2.90;;
48861;SDS011;34681;49.188;-0.374;2023-12-20T08:51:04;8.97;;;4.23;;
48861;SDS011;34681;49.188;-0.374;2023-12-20T08:53:32;12.53;;;3.43;;
48861;SDS011;34681;49.188;-0.374;2023-12-20T08:55:58;9.30;;;3.60;;
48861;SDS011;34681;49.188;-0.374;2023-12-20T08:58:26;6.20;;;3.30;;
48861;SDS011;34681;49.188;-0.374;2023-12-20T09:00:51;10.80;;;3.60;;
48861;SDS011;34681;49.188;-0.374;2023-12-20T09:03:16;9.63;;;4.70;;
48861;SDS011;34681;49.188;-0.374;2023-12-20T09:05:42;9.77;;;3.30;;
48861;SDS011;34681;49.188;-0.374;2023-12-20T09:08:07;9.87;;;4.27;;
48861;SDS011;34681;49.188;-0.374;2023-12-20T09:10:34;12.00;;;4.10;;
48861;SDS011;34681;49.188;-0.374;2023-12-20T09:13:00;7.93;;;5.10;;
48861;SDS011;34681;49.188;-0.374;2023-12-20T09:15:26;11.13;;;3.87;;
48861;SDS011;34681;49.188;-0.374;2023-12-20T09:17:52;13.50;;;4.80;;
48861;SDS011;34681;49.188;-0.374;2023-12-20T09:20:17;14.00;;;4.43;;
48861;SDS011;34681;49.188;-0.374;2023-12-20T09:22:43;12.37;;;5.03;;
48861;SDS011;34681;49.188;-0.374;2023-12-20T09:25:09;20.50;;;9.13;;
48861;SDS011;34681;49.188;-0.374;2023-12-20T09:27:35;12.63;;;6.97;;
48861;SDS011;34681;49.188;-0.374;2023-12-20T09:30:00;12.43;;;5.67;;
48861;SDS011;34681;49.188;-0.374;2023-12-20T09:32:26;10.40;;;4.73;;
48861;SDS011;34681;49.188;-0.374;2023-12-20T09:34:51;14.30;;;5.27;;
48861;SDS011;34681;49.188;-0.374;2023-12-20T09:37:16;7.93;;;3.57;;
48861;SDS011;34681;49.188;-0.374;2023-12-20T09:39:42;9.20;;;4.83;;
48861;SDS011;34681;49.188;-0.374;2023-12-20T09:42:07;12.93;;;5.17;;
48861;SDS011;34681;49.188;-0.374;2023-12-20T09:44:33;9.23;;;3.10;;
48861;SDS011;34681;49.188;-0.374;2023-12-20T09:47:02;12.17;;;5.20;;
48861;SDS011;34681;49.188;-0.374;2023-12-20T09:49:28;5.97;;;2.77;;
48861;SDS011;34681;49.188;-0.374;2023-12-20T09:51:55;9.27;;;3.77;;
48861;SDS011;34681;49.188;-0.374;2023-12-20T09:54:21;14.33;;;4.10;;
48861;SDS011;34681;49.188;-0.374;2023-12-20T09:56:47;12.13;;;3.30;;
48861;SDS011;34681;49.188;-0.374;2023-12-20T09:59:13;6.47;;;3.00;;
48861;SDS011;34681;49.188;-0.374;2023-12-20T10:01:42;5.87;;;3.07;;
48861;SDS011;34681;49.188;-0.374;2023-12-20T10:04:08;11.67;;;3.53;;
48861;SDS011;34681;49.188;-0.374;2023-12-20T10:06:40;8.37;;;3.37;;
48861;SDS011;34681;49.188;-0.374;2023-12-20T10:09:06;10.70;;;2.97;;
48861;SDS011;34681;49.188;-0.374;2023-12-20T10:11:32;12.07;;;3.80;;
48861;SDS011;34681;49.188;-0.374;2023-12-20T10:14:00;16.47;;;3.63;;
48861;SDS011;34681;49.188;-0.374;2023-12-20T10:16:26;10.50;;;3.40;;
48861;SDS011;34681;49.188;-0.374;2023-12-20T10:18:55;9.70;;;3.17;;
48861;SDS011;34681;49.188;-0.374;2023-12-20T10:21:24;13.97;;;3.30;;
48861;SDS011;34681;49.188;-0.374;2023-12-20T10:23:56;7.93;;;2.83;;
48861;SDS011;34681;49.188;-0.374;2023-12-20T10:26:25;14.20;;;4.60;;
48861;SDS011;34681;49.188;-0.374;2023-12-20T10:28:51;12.70;;;3.43;;
48861;SDS011;34681;49.188;-0.374;2023-12-20T10:31:30;10.67;;;2.80;;
48861;SDS011;34681;49.188;-0.374;2023-12-20T10:33:59;4.20;;;2.63;;
48861;SDS011;34681;49.188;-0.374;2023-12-20T10:36:27;9.87;;;3.87;;
48861;SDS011;34681;49.188;-0.374;2023-12-20T10:38:54;8.80;;;3.53;;
48861;SDS011;34681;49.188;-0.374;2023-12-20T10:41:24;11.97;;;4.03;;
48861;SDS011;34681;49.188;-0.374;2023-12-20T10:43:55;13.90;;;3.37;;
48861;SDS011;34681;49.188;-0.374;2023-12-20T10:46:23;9.87;;;3.37;;
48861;SDS011;34681;49.188;-0.374;2023-12-20T10:48:51;6.47;;;3.03;;
48861;SDS011;34681;49.188;-0.374;2023-12-20T10:51:18;7.47;;;3.13;;
48861;SDS011;34681;49.188;-0.374;2023-12-20T10:53:46;8.60;;;3.13;;
48861;SDS011;34681;49.188;-0.374;2023-12-20T10:56:12;7.73;;;3.00;;
48861;SDS011;34681;49.188;-0.374;2023-12-20T10:58:42;8.37;;;2.83;;
48861;SDS011;34681;49.188;-0.374;2023-12-20T11:01:10;13.37;;;3.60;;
48861;SDS011;34681;49.188;-0.374;2023-12-20T11:03:38;7.60;;;3.03;;
48861;SDS011;34681;49.188;-0.374;2023-12-20T11:06:09;15.43;;;3.50;;
48861;SDS011;34681;49.188;-0.374;2023-12-20T11:09:10;10.20;;;4.00;;
48861;SDS011;34681;49.188;-0.374;2023-12-20T11:14:18;10.63;;;2.93;;
48861;SDS011;34681;49.188;-0.374;2023-12-20T11:16:47;9.73;;;3.60;;
48861;SDS011;34681;49.188;-0.374;2023-12-20T11:19:12;7.40;;;2.77;;
48861;SDS011;34681;49.188;-0.374;2023-12-20T11:21:41;7.63;;;2.90;;
48861;SDS011;34681;49.188;-0.374;2023-12-20T11:24:06;6.57;;;3.80;;
48861;SDS011;34681;49.188;-0.374;2023-12-20T11:26:32;9.73;;;2.93;;
48861;SDS011;34681;49.188;-0.374;2023-12-20T11:31:57;8.30;;;2.93;;
48861;SDS011;34681;49.188;-0.374;2023-12-20T11:34:22;8.40;;;3.30;;
48861;SDS011;34681;49.188;-0.374;2023-12-20T11:37:02;11.43;;;3.10;;
48861;SDS011;34681;49.188;-0.374;2023-12-20T11:39:27;6.53;;;2.30;;
48861;SDS011;34681;49.188;-0.374;2023-12-20T11:41:54;14.67;;;3.63;;
48861;SDS011;34681;49.188;-0.374;2023-12-20T11:44:21;11.33;;;5.13;;
48861;SDS011;34681;49.188;-0.374;2023-12-20T11:46:46;7.47;;;3.50;;
48861;SDS011;34681;49.188;-0.374;2023-12-20T11:49:12;4.87;;;3.00;;
48861;SDS011;34681;49.188;-0.374;2023-12-20T11:51:40;10.10;;;4.67;;
48861;SDS011;34681;49.188;-0.374;2023-12-20T11:54:06;12.70;;;4.23;;
48861;SDS011;34681;49.188;-0.374;2023-12-20T11:56:32;10.63;;;3.40;;
48861;SDS011;34681;49.188;-0.374;2023-12-20T11:58:57;5.40;;;3.10;;
48861;SDS011;34681;49.188;-0.374;2023-12-20T12:01:22;7.50;;;2.97;;
48861;SDS011;34681;49.188;-0.374;2023-12-20T12:03:49;7.07;;;2.80;;
48861;SDS011;34681;49.188;-0.374;2023-12-20T12:06:27;7.97;;;2.83;;
48861;SDS011;34681;49.188;-0.374;2023-12-20T12:08:54;14.00;;;3.63;;
48861;SDS011;34681;49.188;-0.374;2023-12-20T12:11:19;6.80;;;3.10;;
48861;SDS011;34681;49.188;-0.374;2023-12-20T12:13:44;4.40;;;2.20;;
48861;SDS011;34681;49.188;-0.374;2023-12-20T12:16:10;7.50;;;2.90;;
48861;SDS011;34681;49.188;-0.374;2023-12-20T12:18:36;9.07;;;3.00;;
48861;SDS011;34681;49.188;-0.374;2023-12-20T12:21:01;8.73;;;3.13;;
48861;SDS011;34681;49.188;-0.374;2023-12-20T12:23:27;9.93;;;3.73;;
48861;SDS011;34681;49.188;-0.374;2023-12-20T12:25:53;7.53;;;2.57;;
48861;SDS011;34681;49.188;-0.374;2023-12-20T12:28:20;7.73;;;3.10;;
48861;SDS011;34681;49.188;-0.374;2023-12-20T12:30:58;6.30;;;2.80;;
48861;SDS011;34681;49.188;-0.374;2023-12-20T12:33:24;9.30;;;3.50;;
48861;SDS011;34681;49.188;-0.374;2023-12-20T12:35:51;4.93;;;2.33;;
48861;SDS011;34681;49.188;-0.374;2023-12-20T12:38:16;6.77;;;3.07;;
48861;SDS011;34681;49.188;-0.374;2023-12-20T12:40:45;9.43;;;2.77;;
48861;SDS011;34681;49.188;-0.374;2023-12-20T12:43:10;10.30;;;2.83;;
48861;SDS011;34681;49.188;-0.374;2023-12-20T12:45:35;7.00;;;2.70;;
48861;SDS011;34681;49.188;-0.374;2023-12-20T12:48:01;6.90;;;2.70;;
48861;SDS011;34681;49.188;-0.374;2023-12-20T12:50:27;12.60;;;3.60;;
48861;SDS011;34681;49.188;-0.374;2023-12-20T12:52:53;5.90;;;2.77;;
48861;SDS011;34681;49.188;-0.374;2023-12-20T12:55:19;4.60;;;2.50;;
48861;SDS011;34681;49.188;-0.374;2023-12-20T12:57:44;11.40;;;3.07;;
48861;SDS011;34681;49.188;-0.374;2023-12-20T13:00:09;5.97;;;2.37;;
48861;SDS011;34681;49.188;-0.374;2023-12-20T13:02:36;5.20;;;2.10;;
48861;SDS011;34681;49.188;-0.374;2023-12-20T13:05:03;7.33;;;3.50;;
48861;SDS011;34681;49.188;-0.374;2023-12-20T13:07:29;5.30;;;3.30;;
48861;SDS011;34681;49.188;-0.374;2023-12-20T13:09:54;5.67;;;2.77;;
48861;SDS011;34681;49.188;-0.374;2023-12-20T13:12:20;5.13;;;2.80;;
48861;SDS011;34681;49.188;-0.374;2023-12-20T13:14:46;8.30;;;2.67;;
48861;SDS011;34681;49.188;-0.374;2023-12-20T13:17:12;11.87;;;2.53;;
48861;SDS011;34681;49.188;-0.374;2023-12-20T13:19:37;3.50;;;2.47;;
48861;SDS011;34681;49.188;-0.374;2023-12-20T13:22:03;9.33;;;3.47;;
48861;SDS011;34681;49.188;-0.374;2023-12-20T13:24:28;7.60;;;3.00;;
48861;SDS011;34681;49.188;-0.374;2023-12-20T13:26:54;5.07;;;2.20;;
48861;SDS011;34681;49.188;-0.374;2023-12-20T13:29:20;8.50;;;2.40;;
48861;SDS011;34681;49.188;-0.374;2023-12-20T13:31:45;7.90;;;2.90;;
48861;SDS011;34681;49.188;-0.374;2023-12-20T13:34:11;7.43;;;2.60;;
48861;SDS011;34681;49.188;-0.374;2023-12-20T13:36:37;10.83;;;2.60;;
48861;SDS011;34681;49.188;-0.374;2023-12-20T13:39:03;3.77;;;2.20;;
48861;SDS011;34681;49.188;-0.374;2023-12-20T13:41:29;6.20;;;2.70;;
48861;SDS011;34681;49.188;-0.374;2023-12-20T13:43:55;10.93;;;2.83;;
48861;SDS011;34681;49.188;-0.374;2023-12-20T13:46:20;5.77;;;2.50;;
48861;SDS011;34681;49.188;-0.374;2023-12-20T13:48:46;5.10;;;2.27;;
48861;SDS011;34681;49.188;-0.374;2023-12-20T13:51:11;7.70;;;3.23;;
48861;SDS011;34681;49.188;-0.374;2023-12-20T13:53:37;5.10;;;2.60;;
48861;SDS011;34681;49.188;-0.374;2023-12-20T13:56:03;8.27;;;3.00;;
48861;SDS011;34681;49.188;-0.374;2023-12-20T13:58:29;9.63;;;3.07;;
48861;SDS011;34681;49.188;-0.374;2023-12-20T14:00:54;6.20;;;2.17;;
48861;SDS011;34681;49.188;-0.374;2023-12-20T14:03:19;7.23;;;2.80;;
48861;SDS011;34681;49.188;-0.374;2023-12-20T14:05:45;11.87;;;3.47;;
48861;SDS011;34681;49.188;-0.374;2023-12-20T14:08:11;11.03;;;3.50;;
48861;SDS011;34681;49.188;-0.374;2023-12-20T14:10:36;6.50;;;2.97;;
48861;SDS011;34681;49.188;-0.374;2023-12-20T14:13:01;5.93;;;3.17;;
48861;SDS011;34681;49.188;-0.374;2023-12-20T14:15:27;8.77;;;2.83;;
48861;SDS011;34681;49.188;-0.374;2023-12-20T14:17:52;6.93;;;2.53;;
48861;SDS011;34681;49.188;-0.374;2023-12-20T14:20:18;10.17;;;3.10;;
48861;SDS011;34681;49.188;-0.374;2023-12-20T14:22:43;10.70;;;3.27;;
48861;SDS011;34681;49.188;-0.374;2023-12-20T14:25:15;5.10;;;2.20;;
48861;SDS011;34681;49.188;-0.374;2023-12-20T14:27:41;8.90;;;2.67;;
48861;SDS011;34681;49.188;-0.374;2023-12-20T14:30:08;8.30;;;3.23;;